Time;durP1;ratioP1;P1;durP2;ratioP2;P2;SDS_P1;SDS_P2;PMS_P1;PMS_P2;Temp;Humidity;BMP_temperature;BMP_pressure;BME280_temperature;BME280_humidity;BME280_pressure;Samples;Min_cycle;Max_cycle;Signal;HPM_P1;HPM_P2
2022/07/04 00:00:14;;;;;;;11.70;6.60;;;;;;;;;;5022304;28;20052;-75
2022/07/04 00:02:41;;;;;;;15.63;6.85;;;;;;;;;;5024249;28;20033;-75
2022/07/04 00:05:10;;;;;;;10.43;6.45;;;;;;;;;;5024210;28;20056;-83
2022/07/04 00:07:36;;;;;;;12.85;6.90;;;;;;;;;;5015445;28;20032;-78
2022/07/04 00:10:03;;;;;;;12.05;6.85;;;;;;;;;;5019680;28;20028;-80
2022/07/04 00:12:29;;;;;;;9.98;6.13;;;;;;;;;;5015198;28;20018;-81
2022/07/04 00:14:55;;;;;;;9.40;5.88;;;;;;;;;;5014948;28;20033;-80
2022/07/04 00:17:21;;;;;;;11.70;6.38;;;;;;;;;;5016139;28;20093;-79
2022/07/04 00:19:47;;;;;;;12.55;6.22;;;;;;;;;;5031207;28;20037;-81
2022/07/04 00:22:13;;;;;;;16.98;7.00;;;;;;;;;;5017205;28;20026;-78
2022/07/04 00:27:26;;;;;;;12.30;6.65;;;;;;;;;;3587614;22;20057;-77
2022/07/04 00:29:52;;;;;;;10.20;5.85;;;;;;;;;;5024003;28;20033;-81
2022/07/04 00:32:18;;;;;;;8.90;5.88;;;;;;;;;;5034038;28;20033;-76
2022/07/04 00:34:45;;;;;;;13.20;6.35;;;;;;;;;;5030817;28;20047;-75
2022/07/04 00:37:11;;;;;;;13.00;5.95;;;;;;;;;;5017458;28;20018;-76
2022/07/04 00:39:37;;;;;;;11.38;6.28;;;;;;;;;;5014564;28;20041;-80
2022/07/04 00:42:03;;;;;;;9.82;6.00;;;;;;;;;;5013948;28;20038;-75
2022/07/04 00:44:30;;;;;;;11.25;7.95;;;;;;;;;;5022726;28;20096;-77
2022/07/04 00:46:57;;;;;;;13.95;8.18;;;;;;;;;;5027689;28;20030;-76
2022/07/04 00:49:23;;;;;;;10.07;6.78;;;;;;;;;;4997455;28;20069;-84
2022/07/04 00:51:50;;;;;;;10.77;6.95;;;;;;;;;;5017212;28;20042;-78
2022/07/04 00:54:21;;;;;;;8.07;6.28;;;;;;;;;;5013546;28;20044;-78
2022/07/04 00:56:47;;;;;;;11.80;6.03;;;;;;;;;;5016364;28;20073;-76
2022/07/04 00:59:13;;;;;;;15.43;6.30;;;;;;;;;;5014694;28;20026;-79
2022/07/04 01:01:39;;;;;;;10.45;6.13;;;;;;;;;;5016493;28;20521;-75
2022/07/04 01:04:06;;;;;;;12.02;6.22;;;;;;;;;;5019558;28;20053;-78
2022/07/04 01:06:32;;;;;;;11.13;6.40;;;;;;;;;;5013699;28;20100;-76
2022/07/04 01:08:59;;;;;;;11.60;6.25;;;;;;;;;;5034314;28;20029;-81
2022/07/04 01:11:25;;;;;;;10.77;6.22;;;;;;;;;;4999801;28;20108;-78
2022/07/04 01:13:53;;;;;;;7.30;5.80;;;;;;;;;;5015574;28;20042;-75
2022/07/04 01:16:19;;;;;;;11.60;6.30;;;;;;;;;;5013314;28;20026;-77
2022/07/04 01:18:45;;;;;;;10.50;6.32;;;;;;;;;;5022289;28;20030;-80
2022/07/04 01:21:12;;;;;;;9.35;5.88;;;;;;;;;;5012096;28;20373;-82
2022/07/04 01:23:38;;;;;;;9.93;6.13;;;;;;;;;;5016159;28;20026;-77
2022/07/04 01:26:05;;;;;;;13.77;6.05;;;;;;;;;;5031528;28;20046;-75
2022/07/04 01:28:31;;;;;;;9.40;5.55;;;;;;;;;;5002670;28;20096;-77
2022/07/04 01:30:57;;;;;;;11.10;6.03;;;;;;;;;;4994151;28;20472;-79
2022/07/04 01:33:24;;;;;;;10.30;6.03;;;;;;;;;;5017744;28;20113;-76
2022/07/04 01:35:50;;;;;;;7.60;6.07;;;;;;;;;;5000608;28;20431;-76
2022/07/04 01:38:16;;;;;;;12.00;6.00;;;;;;;;;;5012922;28;20112;-78
2022/07/04 01:40:42;;;;;;;8.65;5.90;;;;;;;;;;5012675;28;20026;-77
2022/07/04 01:43:08;;;;;;;11.57;6.20;;;;;;;;;;5012310;28;20080;-75
2022/07/04 01:45:37;;;;;;;14.07;7.15;;;;;;;;;;5012399;28;20139;-75
2022/07/04 01:48:04;;;;;;;11.63;6.35;;;;;;;;;;5012153;28;20468;-80
2022/07/04 01:50:30;;;;;;;12.15;6.10;;;;;;;;;;5013001;28;20088;-75
2022/07/04 01:52:56;;;;;;;11.45;6.43;;;;;;;;;;5012467;28;20034;-78
2022/07/04 01:55:22;;;;;;;11.30;6.25;;;;;;;;;;5011649;28;20034;-75
2022/07/04 01:57:48;;;;;;;11.07;6.30;;;;;;;;;;5012555;28;20037;-73
2022/07/04 02:02:59;;;;;;;12.23;6.82;;;;;;;;;;5010761;28;20076;-77
2022/07/04 02:05:25;;;;;;;8.15;6.03;;;;;;;;;;4993699;28;20369;-79
2022/07/04 02:07:51;;;;;;;9.85;6.50;;;;;;;;;;5008217;28;20492;-75
2022/07/04 02:10:18;;;;;;;11.90;6.20;;;;;;;;;;5012612;28;20045;-78
2022/07/04 02:13:02;;;;;;;11.48;6.00;;;;;;;;;;5011946;28;20022;-77
2022/07/04 02:15:31;;;;;;;12.63;6.63;;;;;;;;;;4994698;28;20042;-79
2022/07/04 02:17:57;;;;;;;11.80;6.40;;;;;;;;;;5009748;28;20464;-75
2022/07/04 02:20:24;;;;;;;9.32;5.63;;;;;;;;;;5012702;28;20471;-75
2022/07/04 02:22:50;;;;;;;11.75;6.25;;;;;;;;;;5011860;28;20058;-79
2022/07/04 02:25:16;;;;;;;12.20;6.20;;;;;;;;;;5012642;28;20022;-75
2022/07/04 02:27:42;;;;;;;14.10;6.45;;;;;;;;;;5013717;28;20050;-80
2022/07/04 02:30:08;;;;;;;9.60;6.15;;;;;;;;;;4994858;28;20091;-81
2022/07/04 02:32:35;;;;;;;11.30;5.90;;;;;;;;;;5009706;28;20541;-76
2022/07/04 02:35:01;;;;;;;11.60;5.90;;;;;;;;;;5012285;28;20030;-79
2022/07/04 02:37:27;;;;;;;13.90;6.25;;;;;;;;;;4994204;28;20026;-78
2022/07/04 02:39:53;;;;;;;10.65;6.30;;;;;;;;;;5012133;28;20030;-81
2022/07/04 02:42:19;;;;;;;11.10;5.90;;;;;;;;;;5012395;28;20022;-76
2022/07/04 02:44:46;;;;;;;13.25;6.28;;;;;;;;;;5023134;28;20053;-74
2022/07/04 02:47:12;;;;;;;10.10;6.15;;;;;;;;;;5015283;28;20033;-77
2022/07/04 02:49:38;;;;;;;11.00;6.35;;;;;;;;;;5004262;28;20022;-80
2022/07/04 02:52:04;;;;;;;10.98;6.40;;;;;;;;;;5011864;28;20030;-78
2022/07/04 02:54:30;;;;;;;10.35;6.20;;;;;;;;;;5012319;28;20373;-82
2022/07/04 02:56:56;;;;;;;10.48;5.95;;;;;;;;;;5012008;28;20102;-79
2022/07/04 02:59:23;;;;;;;9.85;6.13;;;;;;;;;;4995663;28;20112;-76
2022/07/04 03:01:49;;;;;;;11.00;6.20;;;;;;;;;;5010988;28;20025;-78
2022/07/04 03:04:15;;;;;;;11.27;6.10;;;;;;;;;;5012301;28;20056;-76
2022/07/04 03:06:42;;;;;;;9.82;6.15;;;;;;;;;;5012180;28;20057;-76
2022/07/04 03:09:08;;;;;;;11.23;6.80;;;;;;;;;;5011361;28;20022;-79
2022/07/04 03:11:34;;;;;;;9.15;6.13;;;;;;;;;;5010419;28;20093;-76
2022/07/04 03:14:01;;;;;;;9.98;6.70;;;;;;;;;;5009790;28;20034;-78
2022/07/04 03:16:27;;;;;;;11.48;6.72;;;;;;;;;;5013869;28;20389;-78
2022/07/04 03:18:53;;;;;;;11.48;6.90;;;;;;;;;;5028330;28;20041;-75
2022/07/04 03:21:19;;;;;;;15.35;8.02;;;;;;;;;;5014967;28;20041;-75
2022/07/04 03:23:57;;;;;;;11.48;8.07;;;;;;;;;;5015480;28;20022;-80
2022/07/04 03:26:33;;;;;;;14.80;7.47;;;;;;;;;;4998861;28;20387;-80
2022/07/04 03:28:59;;;;;;;11.68;6.95;;;;;;;;;;5023973;28;20046;-75
2022/07/04 03:31:26;;;;;;;14.23;7.00;;;;;;;;;;5008018;28;20061;-77
2022/07/04 03:33:52;;;;;;;13.30;6.78;;;;;;;;;;5018460;28;20041;-76
2022/07/04 03:36:19;;;;;;;11.70;6.65;;;;;;;;;;5014912;28;20104;-74
2022/07/04 03:38:45;;;;;;;13.50;6.50;;;;;;;;;;5015281;28;20022;-76
2022/07/04 03:41:11;;;;;;;11.30;6.40;;;;;;;;;;5013422;28;20022;-78
2022/07/04 03:43:37;;;;;;;11.88;6.85;;;;;;;;;;5019436;28;20423;-75
2022/07/04 03:46:03;;;;;;;16.08;6.88;;;;;;;;;;5014789;28;20022;-77
2022/07/04 03:48:30;;;;;;;11.25;6.88;;;;;;;;;;5020017;28;20028;-82
2022/07/04 03:50:56;;;;;;;12.32;6.63;;;;;;;;;;5020646;28;20040;-80
2022/07/04 03:53:22;;;;;;;11.10;6.50;;;;;;;;;;5005373;28;20045;-79
2022/07/04 03:55:48;;;;;;;14.25;7.63;;;;;;;;;;4997269;28;20014;-77
2022/07/04 03:58:14;;;;;;;14.55;7.30;;;;;;;;;;4995736;28;20045;-80
2022/07/04 04:00:41;;;;;;;12.40;7.32;;;;;;;;;;5014149;28;20033;-83
2022/07/04 04:05:26;;;;;;;16.33;7.03;;;;;;;;;;5013982;28;20022;-80
2022/07/04 04:05:54;;;;;;;13.70;7.90;;;;;;;;;;5013214;28;20022;-79
2022/07/04 04:08:21;;;;;;;9.27;7.47;;;;;;;;;;5018353;28;20105;-79
2022/07/04 04:10:48;;;;;;;12.32;7.25;;;;;;;;;;5014720;28;20111;-86
2022/07/04 04:13:15;;;;;;;16.55;7.65;;;;;;;;;;5013881;28;20502;-84
2022/07/04 04:15:41;;;;;;;13.57;7.45;;;;;;;;;;5013533;28;20035;-83
2022/07/04 04:18:08;;;;;;;14.68;6.97;;;;;;;;;;5014432;28;20040;-78
2022/07/04 04:20:34;;;;;;;13.75;7.80;;;;;;;;;;5014058;28;20038;-81
2022/07/04 04:23:00;;;;;;;10.30;7.70;;;;;;;;;;4993150;28;20037;-81
2022/07/04 04:25:26;;;;;;;10.93;7.38;;;;;;;;;;5014339;28;20098;-85
2022/07/04 04:27:53;;;;;;;15.48;7.85;;;;;;;;;;5012854;28;20057;-79
2022/07/04 04:30:19;;;;;;;14.13;7.72;;;;;;;;;;4996507;28;20041;-80
2022/07/04 04:32:45;;;;;;;14.55;7.70;;;;;;;;;;5013929;28;20108;-78
2022/07/04 04:35:11;;;;;;;14.93;7.97;;;;;;;;;;5012662;28;20022;-82
2022/07/04 04:37:37;;;;;;;16.67;7.93;;;;;;;;;;5011964;28;20128;-84
2022/07/04 04:40:04;;;;;;;16.45;7.38;;;;;;;;;;5013177;28;20030;-76
2022/07/04 04:42:31;;;;;;;14.75;7.40;;;;;;;;;;5008923;28;20033;-73
2022/07/04 04:44:57;;;;;;;12.52;7.60;;;;;;;;;;5005449;28;20030;-73
2022/07/04 04:47:23;;;;;;;12.35;7.57;;;;;;;;;;5012181;28;20105;-74
2022/07/04 04:49:49;;;;;;;14.90;10.63;;;;;;;;;;5017578;28;20472;-73
2022/07/04 04:52:15;;;;;;;34.25;22.38;;;;;;;;;;5017831;28;20550;-78
2022/07/04 04:54:41;;;;;;;21.42;10.90;;;;;;;;;;5015699;28;20049;-79
2022/07/04 04:57:08;;;;;;;15.52;8.45;;;;;;;;;;5016452;28;20053;-75
2022/07/04 04:59:34;;;;;;;16.00;8.05;;;;;;;;;;5018840;28;20029;-76
2022/07/04 05:02:00;;;;;;;13.38;8.48;;;;;;;;;;5028352;28;20029;-78
2022/07/04 05:04:26;;;;;;;13.27;7.75;;;;;;;;;;5003081;28;20068;-79
2022/07/04 05:06:52;;;;;;;25.05;8.30;;;;;;;;;;5012662;28;20072;-78
2022/07/04 05:09:19;;;;;;;16.52;7.50;;;;;;;;;;5016588;28;20545;-81
2022/07/04 05:11:45;;;;;;;15.15;7.47;;;;;;;;;;5012899;28;20484;-75
2022/07/04 05:14:11;;;;;;;18.05;7.43;;;;;;;;;;5008454;28;20089;-77
2022/07/04 05:16:37;;;;;;;13.88;7.07;;;;;;;;;;5017017;28;20058;-75
2022/07/04 05:19:03;;;;;;;19.05;8.05;;;;;;;;;;5016918;28;20037;-73
2022/07/04 05:21:30;;;;;;;17.55;7.53;;;;;;;;;;5029262;28;20096;-74
2022/07/04 05:23:56;;;;;;;13.77;6.93;;;;;;;;;;5015380;28;20029;-71
2022/07/04 05:26:22;;;;;;;14.27;7.10;;;;;;;;;;5015360;28;20037;-73
2022/07/04 05:28:48;;;;;;;17.30;7.05;;;;;;;;;;5010891;28;20050;-73
2022/07/04 05:31:15;;;;;;;15.68;7.63;;;;;;;;;;5010157;28;20022;-77
2022/07/04 05:33:41;;;;;;;12.05;6.38;;;;;;;;;;5021399;28;20141;-74
2022/07/04 05:36:08;;;;;;;13.00;6.90;;;;;;;;;;5013899;28;20040;-75
2022/07/04 05:38:34;;;;;;;12.30;6.35;;;;;;;;;;5018966;28;20052;-72
2022/07/04 05:41:00;;;;;;;13.80;6.90;;;;;;;;;;5019139;28;20498;-73
2022/07/04 05:43:26;;;;;;;15.13;6.97;;;;;;;;;;5020072;28;20483;-72
2022/07/04 05:45:52;;;;;;;12.80;6.93;;;;;;;;;;4995725;28;20025;-76
2022/07/04 05:48:19;;;;;;;22.45;7.30;;;;;;;;;;5016233;28;20026;-79
2022/07/04 05:50:45;;;;;;;18.10;7.22;;;;;;;;;;5015561;28;20048;-81
2022/07/04 05:53:11;;;;;;;11.60;6.15;;;;;;;;;;4992182;28;20033;-75
2022/07/04 05:55:37;;;;;;;17.20;5.78;;;;;;;;;;5018064;28;20033;-88
2022/07/04 05:58:03;;;;;;;13.10;6.07;;;;;;;;;;5019784;28;20037;-78
2022/07/04 06:00:29;;;;;;;12.18;5.50;;;;;;;;;;5021037;28;20042;-74
2022/07/04 06:02:55;;;;;;;14.57;5.63;;;;;;;;;;5013317;28;20487;-83
2022/07/04 06:05:22;;;;;;;15.52;7.25;;;;;;;;;;5017923;28;20042;-71
2022/07/04 06:07:48;;;;;;;14.18;5.82;;;;;;;;;;5021037;28;20033;-73
2022/07/04 06:10:15;;;;;;;14.30;6.57;;;;;;;;;;5015263;28;20018;-73
2022/07/04 06:12:41;;;;;;;10.30;5.05;;;;;;;;;;5019218;28;20029;-80
2022/07/04 06:15:09;;;;;;;13.02;5.30;;;;;;;;;;5024083;28;20038;-75
2022/07/04 06:17:35;;;;;;;9.32;5.07;;;;;;;;;;5017521;28;20033;-73
2022/07/04 06:20:02;;;;;;;9.90;4.60;;;;;;;;;;5023656;28;20052;-76
2022/07/04 06:22:28;;;;;;;12.02;6.07;;;;;;;;;;5018780;28;20057;-79
2022/07/04 06:24:54;;;;;;;11.68;5.57;;;;;;;;;;5015117;28;20025;-78
2022/07/04 06:27:20;;;;;;;10.63;5.35;;;;;;;;;;5009985;28;20064;-75
2022/07/04 06:29:46;;;;;;;15.70;6.35;;;;;;;;;;5011215;28;20025;-80
2022/07/04 06:32:12;;;;;;;10.52;5.38;;;;;;;;;;5018021;28;20025;-79
2022/07/04 06:37:37;;;;;;;12.65;6.13;;;;;;;;;;4962256;28;20134;-80
2022/07/04 06:40:03;;;;;;;14.73;5.75;;;;;;;;;;4964139;28;20050;-76
2022/07/04 06:42:29;;;;;;;16.08;5.50;;;;;;;;;;4949375;28;20031;-74
2022/07/04 06:44:55;;;;;;;10.15;4.57;;;;;;;;;;4959899;28;20613;-76
2022/07/04 06:47:21;;;;;;;10.80;5.28;;;;;;;;;;4969434;28;20074;-72
2022/07/04 06:49:47;;;;;;;8.68;5.25;;;;;;;;;;4965427;28;20046;-74
2022/07/04 06:52:13;;;;;;;10.63;4.72;;;;;;;;;;4971698;28;20034;-73
2022/07/04 06:54:39;;;;;;;10.93;5.00;;;;;;;;;;4973432;28;20078;-74
2022/07/04 06:57:05;;;;;;;9.95;5.55;;;;;;;;;;4964212;28;20032;-77
2022/07/04 06:59:31;;;;;;;9.40;5.45;;;;;;;;;;4980275;28;20117;-75
2022/07/04 07:01:57;;;;;;;11.27;6.03;;;;;;;;;;4977942;28;20031;-77
2022/07/04 07:04:23;;;;;;;10.73;5.15;;;;;;;;;;4966775;28;20034;-77
2022/07/04 07:06:49;;;;;;;6.25;4.32;;;;;;;;;;4971109;28;20628;-76
2022/07/04 07:09:15;;;;;;;9.68;4.95;;;;;;;;;;4951218;28;20039;-76
2022/07/04 07:11:42;;;;;;;8.50;4.82;;;;;;;;;;4973153;28;20113;-78
2022/07/04 07:14:08;;;;;;;10.00;5.07;;;;;;;;;;5001900;28;20151;-77
2022/07/04 07:16:34;;;;;;;9.00;4.75;;;;;;;;;;5018864;28;20101;-77
2022/07/04 07:19:00;;;;;;;6.55;4.65;;;;;;;;;;5020354;28;20025;-77
2022/07/04 07:21:26;;;;;;;6.55;4.93;;;;;;;;;;5013762;28;20025;-77
2022/07/04 07:23:52;;;;;;;13.35;5.05;;;;;;;;;;5021418;28;20032;-78
2022/07/04 07:26:18;;;;;;;9.77;4.55;;;;;;;;;;5015388;28;20032;-77
2022/07/04 07:28:44;;;;;;;5.65;4.25;;;;;;;;;;5013991;28;20051;-77
2022/07/04 07:31:11;;;;;;;8.30;4.55;;;;;;;;;;5024369;28;20026;-83
2022/07/04 07:37:45;;;;;;;8.65;4.50;;;;;;;;;;4936505;29;20047;-82
2022/07/04 07:40:03;;;;;;;10.95;4.53;;;;;;;;;;4930984;29;20039;-78
2022/07/04 07:42:29;;;;;;;7.60;4.70;;;;;;;;;;4936510;29;20501;-76
2022/07/04 07:44:56;;;;;;;9.68;4.70;;;;;;;;;;4938075;29;20129;-73
2022/07/04 07:47:22;;;;;;;20.25;5.22;;;;;;;;;;4934040;29;20061;-83
2022/07/04 07:49:50;;;;;;;9.63;5.03;;;;;;;;;;4945961;29;20049;-86
2022/07/04 07:52:17;;;;;;;9.23;4.80;;;;;;;;;;4930925;29;20038;-74
2022/07/04 07:54:43;;;;;;;7.53;4.82;;;;;;;;;;4932717;29;20043;-75
2022/07/04 07:57:09;;;;;;;9.00;4.75;;;;;;;;;;4937962;29;20633;-78
2022/07/04 07:59:35;;;;;;;9.02;4.45;;;;;;;;;;4933752;29;20493;-73
2022/07/04 08:02:01;;;;;;;13.52;5.82;;;;;;;;;;4925747;29;20129;-72
2022/07/04 08:04:37;;;;;;;9.82;4.70;;;;;;;;;;4934970;29;20039;-73
2022/07/04 08:07:07;;;;;;;8.18;4.22;;;;;;;;;;4932285;29;20039;-72
2022/07/04 08:09:34;;;;;;;11.70;4.97;;;;;;;;;;4939035;28;20035;-70
2022/07/04 08:12:00;;;;;;;7.60;4.65;;;;;;;;;;5020463;28;20109;-72
2022/07/04 08:14:27;;;;;;;8.98;4.78;;;;;;;;;;5014336;28;20052;-72
2022/07/04 08:16:53;;;;;;;6.85;4.40;;;;;;;;;;5014462;28;20022;-73
2022/07/04 08:19:19;;;;;;;6.82;4.63;;;;;;;;;;5014207;28;20546;-71
2022/07/04 08:21:46;;;;;;;12.07;4.60;;;;;;;;;;5014363;28;20026;-72
2022/07/04 08:24:13;;;;;;;10.73;5.15;;;;;;;;;;5014343;28;20502;-70
2022/07/04 08:26:39;;;;;;;22.40;4.60;;;;;;;;;;5013624;28;20113;-73
2022/07/04 08:29:18;;;;;;;12.18;4.38;;;;;;;;;;5013860;28;20080;-69
2022/07/04 08:31:44;;;;;;;27.55;5.50;;;;;;;;;;5014058;28;20527;-72
2022/07/04 08:34:10;;;;;;;9.18;4.47;;;;;;;;;;5000506;28;20399;-70
2022/07/04 08:36:36;;;;;;;14.27;4.07;;;;;;;;;;5013037;28;20034;-71
2022/07/04 08:39:02;;;;;;;10.90;4.35;;;;;;;;;;5013766;28;20026;-73
2022/07/04 08:41:29;;;;;;;13.80;4.10;;;;;;;;;;4996400;28;20030;-72
2022/07/04 08:43:56;;;;;;;8.40;4.00;;;;;;;;;;5013648;28;20022;-69
2022/07/04 08:46:26;;;;;;;7.30;3.70;;;;;;;;;;5014095;28;20076;-70
2022/07/04 08:48:52;;;;;;;8.25;3.65;;;;;;;;;;5011961;28;20072;-73
2022/07/04 08:51:26;;;;;;;7.40;3.78;;;;;;;;;;5013009;28;20026;-74
2022/07/04 08:53:57;;;;;;;7.68;3.67;;;;;;;;;;4984960;28;20034;-71
2022/07/04 08:59:08;;;;;;;6.88;3.58;;;;;;;;;;5004744;28;20092;-75
2022/07/04 09:01:34;;;;;;;7.47;3.53;;;;;;;;;;5013618;28;20026;-70
2022/07/04 09:04:01;;;;;;;8.10;3.30;;;;;;;;;;5013474;28;20026;-73
2022/07/04 09:06:29;;;;;;;6.53;3.45;;;;;;;;;;5013545;28;20022;-73
2022/07/04 09:08:55;;;;;;;10.18;4.20;;;;;;;;;;5013391;28;20583;-72
2022/07/04 09:11:22;;;;;;;6.25;3.67;;;;;;;;;;5018652;28;20386;-73
2022/07/04 09:13:48;;;;;;;9.35;3.92;;;;;;;;;;5012207;28;20451;-69
2022/07/04 09:16:14;;;;;;;5.80;3.72;;;;;;;;;;5013543;28;20042;-68
2022/07/04 09:18:40;;;;;;;6.88;3.53;;;;;;;;;;5013198;28;20022;-68
2022/07/04 09:21:07;;;;;;;7.00;3.55;;;;;;;;;;5013167;28;20020;-75
2022/07/04 09:23:39;;;;;;;9.60;4.43;;;;;;;;;;5013311;28;20026;-74
2022/07/04 09:26:08;;;;;;;7.22;4.25;;;;;;;;;;5013619;28;20494;-72
2022/07/04 09:28:34;;;;;;;12.00;3.95;;;;;;;;;;5011767;28;20050;-67
2022/07/04 09:31:01;;;;;;;5.60;3.70;;;;;;;;;;5020116;28;20025;-72
2022/07/04 09:33:59;;;;;;;7.50;3.95;;;;;;;;;;5013030;28;20097;-72
2022/07/04 09:36:26;;;;;;;6.47;3.70;;;;;;;;;;4914779;29;20582;-73
2022/07/04 09:39:06;;;;;;;6.30;3.63;;;;;;;;;;4914240;29;20068;-73
2022/07/04 09:41:35;;;;;;;13.95;4.40;;;;;;;;;;4914620;29;20057;-71
2022/07/04 09:44:06;;;;;;;7.97;3.95;;;;;;;;;;4914501;29;20541;-72
2022/07/04 09:46:33;;;;;;;8.38;3.80;;;;;;;;;;4912647;29;20164;-70
2022/07/04 09:48:59;;;;;;;13.05;4.70;;;;;;;;;;4916823;29;20057;-71
2022/07/04 09:51:41;;;;;;;8.20;4.10;;;;;;;;;;4913852;29;20040;-70
2022/07/04 09:54:13;;;;;;;9.00;4.40;;;;;;;;;;4914277;29;20096;-72
2022/07/04 09:56:47;;;;;;;12.90;4.28;;;;;;;;;;4912612;29;20522;-70
2022/07/04 09:59:13;;;;;;;5.20;3.70;;;;;;;;;;4911225;29;20059;-71
2022/07/04 10:01:39;;;;;;;8.75;3.75;;;;;;;;;;4914652;29;20524;-73
2022/07/04 10:04:06;;;;;;;8.88;3.90;;;;;;;;;;4914088;29;20027;-70
2022/07/04 10:06:33;;;;;;;6.45;4.30;;;;;;;;;;4911284;29;20064;-72
2022/07/04 10:09:11;;;;;;;7.82;4.00;;;;;;;;;;4912566;29;20032;-70
2022/07/04 10:11:38;;;;;;;10.68;4.50;;;;;;;;;;4949466;28;21097;-72
2022/07/04 10:14:08;;;;;;;6.80;4.50;;;;;;;;;;5012655;28;20034;-73
2022/07/04 10:16:34;;;;;;;9.00;4.00;;;;;;;;;;5012474;28;20022;-75
2022/07/04 10:19:01;;;;;;;12.73;4.53;;;;;;;;;;5012257;28;20044;-70
2022/07/04 10:21:37;;;;;;;9.20;4.47;;;;;;;;;;5012447;28;20080;-73
2022/07/04 10:24:03;;;;;;;12.20;4.55;;;;;;;;;;4994208;28;20110;-69
2022/07/04 10:26:30;;;;;;;10.32;5.00;;;;;;;;;;5016710;28;20025;-71
2022/07/04 10:28:57;;;;;;;10.32;3.78;;;;;;;;;;5015693;28;20077;-70
2022/07/04 10:31:25;;;;;;;30.95;6.03;;;;;;;;;;5016523;28;20014;-73
2022/07/04 10:33:51;;;;;;;9.73;4.20;;;;;;;;;;5016364;28;20395;-73
2022/07/04 10:36:21;;;;;;;11.13;4.70;;;;;;;;;;4998927;28;20017;-73
2022/07/04 10:38:47;;;;;;;10.07;4.97;;;;;;;;;;5015505;28;20034;-73
2022/07/04 10:41:14;;;;;;;8.02;4.65;;;;;;;;;;5016491;28;20383;-73
2022/07/04 10:44:06;;;;;;;9.73;4.50;;;;;;;;;;5015116;28;20383;-69
2022/07/04 10:46:43;;;;;;;12.02;4.80;;;;;;;;;;5016765;28;20018;-75
2022/07/04 10:49:15;;;;;;;10.88;4.40;;;;;;;;;;5015286;28;20483;-70
2022/07/04 10:51:48;;;;;;;7.23;4.20;;;;;;;;;;5016029;28;20360;-73
2022/07/04 10:54:18;;;;;;;7.22;4.18;;;;;;;;;;5016194;28;20657;-74
2022/07/04 10:56:46;;;;;;;10.82;4.50;;;;;;;;;;5016070;28;20026;-76
2022/07/04 10:59:13;;;;;;;8.30;4.15;;;;;;;;;;5015817;28;20026;-72
2022/07/04 11:01:45;;;;;;;8.45;4.72;;;;;;;;;;5007241;28;20112;-71
2022/07/04 11:04:11;;;;;;;16.25;4.97;;;;;;;;;;5015703;28;20392;-73
2022/07/04 11:06:38;;;;;;;5.72;3.92;;;;;;;;;;5015881;28;20044;-71
2022/07/04 11:09:16;;;;;;;7.68;4.53;;;;;;;;;;5015860;28;20018;-73
2022/07/04 11:11:56;;;;;;;10.35;4.72;;;;;;;;;;5015384;28;20069;-72
2022/07/04 11:14:31;;;;;;;6.78;4.20;;;;;;;;;;5002607;28;20161;-73
2022/07/04 11:16:57;;;;;;;7.57;4.10;;;;;;;;;;5015727;28;20025;-70
2022/07/04 11:19:23;;;;;;;8.23;4.53;;;;;;;;;;5015568;28;20141;-75
2022/07/04 11:21:49;;;;;;;6.50;4.30;;;;;;;;;;5015212;28;20109;-73
2022/07/04 11:24:16;;;;;;;27.25;5.50;;;;;;;;;;5015427;28;20040;-73
2022/07/04 11:26:42;;;;;;;8.45;4.70;;;;;;;;;;5015251;28;20547;-70
2022/07/04 11:29:08;;;;;;;14.07;4.90;;;;;;;;;;5015370;28;20033;-73
2022/07/04 11:31:38;;;;;;;8.50;4.80;;;;;;;;;;5015246;28;20025;-70
2022/07/04 11:34:04;;;;;;;10.48;4.85;;;;;;;;;;5014626;28;20042;-74
2022/07/04 11:36:30;;;;;;;9.88;4.93;;;;;;;;;;5014944;28;20032;-70
2022/07/04 11:38:58;;;;;;;8.25;4.82;;;;;;;;;;5015390;28;20537;-73
2022/07/04 11:47:10;;;;;;;21.17;5.22;;;;;;;;;;5015276;28;20394;-75
2022/07/04 11:49:37;;;;;;;7.32;4.43;;;;;;;;;;4997348;28;20535;-74
2022/07/04 11:52:04;;;;;;;11.95;4.80;;;;;;;;;;5015461;28;20108;-74
2022/07/04 11:54:30;;;;;;;10.40;4.95;;;;;;;;;;5014848;28;20093;-75
2022/07/04 11:57:12;;;;;;;10.40;4.50;;;;;;;;;;5012741;28;20030;-70
2022/07/04 11:59:38;;;;;;;8.75;5.18;;;;;;;;;;4994571;28;20562;-75
2022/07/04 12:02:20;;;;;;;8.57;4.43;;;;;;;;;;5013661;28;20061;-75
2022/07/04 12:04:46;;;;;;;10.48;4.97;;;;;;;;;;5005587;28;20380;-73
2022/07/04 12:07:13;;;;;;;9.68;4.50;;;;;;;;;;4997422;28;20084;-74
2022/07/04 12:09:40;;;;;;;7.53;4.40;;;;;;;;;;5016737;28;20026;-73
2022/07/04 12:12:06;;;;;;;16.02;5.35;;;;;;;;;;4998132;28;20439;-72
2022/07/04 12:14:32;;;;;;;9.88;4.30;;;;;;;;;;5014454;28;20038;-73
2022/07/04 12:17:17;;;;;;;9.30;4.53;;;;;;;;;;5013644;28;20104;-75
2022/07/04 12:19:53;;;;;;;11.23;4.72;;;;;;;;;;5010222;28;20057;-75
2022/07/04 12:22:30;;;;;;;6.72;4.55;;;;;;;;;;4994724;28;20030;-71
2022/07/04 12:24:57;;;;;;;7.25;4.43;;;;;;;;;;4992661;28;20031;-71
2022/07/04 12:27:25;;;;;;;7.40;4.38;;;;;;;;;;4998926;28;20099;-71
2022/07/04 12:29:52;;;;;;;14.07;5.75;;;;;;;;;;4997286;28;20029;-72
2022/07/04 12:32:18;;;;;;;7.18;4.65;;;;;;;;;;5012258;28;20034;-73
2022/07/04 12:34:44;;;;;;;10.13;5.13;;;;;;;;;;4995275;28;20049;-78
2022/07/04 12:37:12;;;;;;;6.65;4.45;;;;;;;;;;5013340;28;20407;-77
2022/07/04 12:39:39;;;;;;;10.13;4.88;;;;;;;;;;5030962;28;20067;-75
2022/07/04 12:42:05;;;;;;;10.75;5.30;;;;;;;;;;5018326;28;20022;-75
2022/07/04 12:44:31;;;;;;;8.75;4.80;;;;;;;;;;5015770;28;20034;-77
2022/07/04 12:46:57;;;;;;;8.73;5.00;;;;;;;;;;5012270;28;20029;-76
2022/07/04 12:49:23;;;;;;;10.45;4.57;;;;;;;;;;5005463;28;20032;-75
2022/07/04 12:51:50;;;;;;;18.33;4.60;;;;;;;;;;5004611;28;20029;-81
2022/07/04 12:54:16;;;;;;;8.88;4.90;;;;;;;;;;5018675;28;20040;-79
2022/07/04 12:56:44;;;;;;;11.50;4.70;;;;;;;;;;5010970;28;20863;-82
2022/07/04 12:59:11;;;;;;;7.68;4.53;;;;;;;;;;5012936;28;20064;-78
2022/07/04 13:01:37;;;;;;;9.80;4.78;;;;;;;;;;4995943;28;20080;-76
2022/07/04 13:04:04;;;;;;;8.40;4.55;;;;;;;;;;5015070;28;20033;-72
2022/07/04 13:06:30;;;;;;;15.73;5.05;;;;;;;;;;5017004;28;20076;-71
2022/07/04 13:08:56;;;;;;;13.60;5.18;;;;;;;;;;5014061;28;20030;-72
2022/07/04 13:14:07;;;;;;;16.13;5.85;;;;;;;;;;5021809;28;20095;-72
2022/07/04 13:16:33;;;;;;;8.18;4.85;;;;;;;;;;5016177;28;20049;-70
2022/07/04 13:19:02;;;;;;;8.05;4.75;;;;;;;;;;5012612;28;20022;-75
2022/07/04 13:21:28;;;;;;;11.80;4.78;;;;;;;;;;4997161;28;20387;-78
2022/07/04 13:23:55;;;;;;;16.52;5.75;;;;;;;;;;5012343;28;20153;-69
2022/07/04 13:26:21;;;;;;;14.23;5.93;;;;;;;;;;5013292;28;20030;-76
2022/07/04 13:28:47;;;;;;;12.45;5.22;;;;;;;;;;5011897;28;20057;-75
2022/07/04 13:31:13;;;;;;;16.48;5.25;;;;;;;;;;5011241;28;20033;-80
2022/07/04 13:33:40;;;;;;;16.23;5.40;;;;;;;;;;5008912;28;20030;-71
2022/07/04 13:36:06;;;;;;;11.73;4.68;;;;;;;;;;5015105;28;20026;-70
2022/07/04 13:38:32;;;;;;;12.55;5.13;;;;;;;;;;5014916;28;20030;-73
2022/07/04 13:40:58;;;;;;;14.70;5.15;;;;;;;;;;5015310;28;20109;-77
2022/07/04 13:43:24;;;;;;;21.13;5.22;;;;;;;;;;5009964;28;20040;-75
2022/07/04 13:45:55;;;;;;;6.00;3.47;;;;;;;;;;4994664;28;20487;-71
2022/07/04 13:48:21;;;;;;;5.40;3.28;;;;;;;;;;5009290;28;20033;-81
2022/07/04 13:50:47;;;;;;;7.63;3.60;;;;;;;;;;5021204;28;20037;-84
2022/07/04 13:53:13;;;;;;;4.50;3.40;;;;;;;;;;5013331;28;20021;-77
2022/07/04 13:55:39;;;;;;;9.27;3.83;;;;;;;;;;5013086;28;20033;-74
2022/07/04 13:58:06;;;;;;;12.13;3.92;;;;;;;;;;5010983;28;20032;-77
2022/07/04 14:00:32;;;;;;;6.25;3.35;;;;;;;;;;5013174;28;20053;-75
2022/07/04 14:02:59;;;;;;;6.30;3.38;;;;;;;;;;5015482;28;20033;-77
2022/07/04 14:05:25;;;;;;;8.95;3.72;;;;;;;;;;5016514;28;20031;-79
2022/07/04 14:07:51;;;;;;;4.38;3.35;;;;;;;;;;5014548;28;20024;-71
2022/07/04 14:10:18;;;;;;;4.00;3.20;;;;;;;;;;5014982;28;20021;-75
2022/07/04 14:12:44;;;;;;;6.57;3.03;;;;;;;;;;5007383;28;20030;-77
2022/07/04 14:15:10;;;;;;;5.80;3.83;;;;;;;;;;5011606;28;20152;-72
2022/07/04 14:17:37;;;;;;;10.30;3.60;;;;;;;;;;5020849;28;20092;-71
2022/07/04 14:20:07;;;;;;;5.13;2.80;;;;;;;;;;5005120;28;20097;-79
2022/07/04 14:22:34;;;;;;;5.60;2.83;;;;;;;;;;5009046;28;20464;-76
2022/07/04 14:25:00;;;;;;;14.23;3.72;;;;;;;;;;5008115;28;20034;-77
2022/07/04 14:27:26;;;;;;;6.43;2.88;;;;;;;;;;5007801;28;20488;-76
2022/07/04 14:29:52;;;;;;;4.97;2.80;;;;;;;;;;5006770;28;20077;-73
2022/07/04 14:32:18;;;;;;;7.03;3.30;;;;;;;;;;5010379;28;20018;-79
2022/07/04 14:34:44;;;;;;;7.00;2.67;;;;;;;;;;4999823;28;20048;-76
2022/07/04 14:37:10;;;;;;;11.70;2.58;;;;;;;;;;4983328;28;20022;-81
2022/07/04 14:39:36;;;;;;;5.07;2.53;;;;;;;;;;5026148;28;20041;-74
2022/07/04 14:42:03;;;;;;;4.57;2.20;;;;;;;;;;4999526;28;20475;-72
2022/07/04 14:44:29;;;;;;;9.00;2.40;;;;;;;;;;5013877;28;20081;-72
2022/07/04 14:46:55;;;;;;;3.65;2.40;;;;;;;;;;5010327;28;20037;-72
2022/07/04 14:49:21;;;;;;;3.20;2.40;;;;;;;;;;5020071;28;20030;-69
2022/07/04 14:51:53;;;;;;;13.80;2.13;;;;;;;;;;5018010;28;20050;-70
2022/07/04 14:54:20;;;;;;;8.63;2.67;;;;;;;;;;5017194;28;20037;-70
2022/07/04 14:56:46;;;;;;;4.60;2.30;;;;;;;;;;5010327;28;20533;-77
2022/07/04 14:59:12;;;;;;;16.95;2.88;;;;;;;;;;5008005;28;20038;-75